Time;durP1;ratioP1;P1;durP2;ratioP2;P2;SDS_P1;SDS_P2;PMS_P1;PMS_P2;Temp;Humidity;BMP_temperature;BMP_pressure;BME280_temperature;BME280_humidity;BME280_pressure;Samples;Min_cycle;Max_cycle;Signal;HPM_P1;HPM_P2
2022/01/27 00:01:38;;;;;;;34.40;16.50;;;;;;;-1.05;100.00;151102.88;5045576;28;20442;-77
2022/01/27 00:04:17;;;;;;;29.60;15.80;;;;;;;-1.04;100.00;151106.75;5059909;28;20440;-77
2022/01/27 00:06:54;;;;;;;41.53;18.00;;;;;;;-1.09;100.00;151092.66;5054941;28;20948;-77
2022/01/27 00:09:44;;;;;;;26.30;16.07;;;;;;;-1.04;100.00;151106.75;5055703;28;20790;-77
2022/01/27 00:12:19;;;;;;;31.33;14.43;;;;;;;-1.09;100.00;151092.66;5058835;28;20449;-77
2022/01/27 00:15:07;;;;;;;52.07;18.03;;;;;;;-1.05;100.00;151104.19;5074869;28;20493;-76
2022/01/27 00:17:46;;;;;;;27.87;15.03;;;;;;;-1.09;100.00;151093.94;5059298;28;20450;-77
2022/01/27 00:20:22;;;;;;;43.87;17.60;;;;;;;-1.13;100.00;151083.66;5071723;28;20451;-77
2022/01/27 00:22:59;;;;;;;24.33;14.10;;;;;;;-1.13;100.00;151082.38;5079452;28;20944;-76
2022/01/27 00:25:35;;;;;;;30.67;14.43;;;;;;;-1.06;100.00;151100.34;5064092;28;20445;-77
2022/01/27 00:28:10;;;;;;;34.43;16.83;;;;;;;-0.97;100.00;151123.41;5073410;28;20473;-76
2022/01/27 00:30:46;;;;;;;31.60;15.57;;;;;;;-1.03;100.00;151108.06;5074761;28;20714;-77
2022/01/27 00:33:22;;;;;;;52.77;17.17;;;;;;;-1.06;100.00;151100.34;5074648;28;20459;-77
2022/01/27 00:35:57;;;;;;;54.00;18.17;;;;;;;-0.98;100.00;151120.88;5074008;28;20452;-77
2022/01/27 00:38:34;;;;;;;35.87;15.20;;;;;;;-1.07;100.00;151097.78;5074116;28;20441;-77
2022/01/27 00:41:10;;;;;;;41.43;17.17;;;;;;;-1.09;100.00;151093.94;5080736;28;20454;-77
2022/01/27 00:43:46;;;;;;;31.40;15.73;;;;;;;-1.11;100.00;151087.53;5071958;28;20534;-77
2022/01/27 00:46:22;;;;;;;35.53;16.27;;;;;;;-1.05;100.00;151102.88;5071287;28;20879;-77
2022/01/27 00:48:57;;;;;;;33.20;16.47;;;;;;;-1.00;100.00;151115.69;5073384;28;20447;-77
2022/01/27 00:51:37;;;;;;;32.03;17.47;;;;;;;-1.00;100.00;151115.69;5073804;28;20445;-77
2022/01/27 00:54:18;;;;;;;31.83;16.40;;;;;;;-0.99;100.00;151119.56;5083809;28;20443;-77
2022/01/27 00:57:02;;;;;;;46.43;18.77;;;;;;;-0.96;100.00;151125.97;5053522;28;20805;-77
2022/01/27 00:59:48;;;;;;;43.00;17.43;;;;;;;-0.99;100.00;151118.28;5105262;28;20532;-77
2022/01/27 01:02:35;;;;;;;25.10;14.80;;;;;;;-0.99;100.00;151118.28;5085704;28;20459;-77
2022/01/27 01:05:27;;;;;;;29.93;16.00;;;;;;;-0.98;100.00;151120.88;5072334;28;20453;-77
2022/01/27 01:08:31;;;;;;;29.90;15.67;;;;;;;-0.95;100.00;151128.50;5070873;28;20436;-77
2022/01/27 01:16:54;;;;;;;47.07;16.43;;;;;;;-0.90;100.00;151142.63;5057448;28;20464;-77
2022/01/27 01:19:42;;;;;;;32.07;15.40;;;;;;;-0.89;100.00;151143.91;5052526;28;20454;-77
2022/01/27 01:31:11;;;;;;;34.40;16.57;;;;;;;-0.94;100.00;151132.38;5087435;28;20438;-77
2022/01/27 01:33:56;;;;;;;29.70;16.90;;;;;;;-0.88;100.00;151146.50;5070687;28;20456;-77
2022/01/27 01:36:37;;;;;;;31.73;16.83;;;;;;;-0.88;100.00;151147.78;5106966;28;20508;-77
2022/01/27 01:39:13;;;;;;;49.00;17.73;;;;;;;-0.88;100.00;151146.50;5072706;28;20484;-77
2022/01/27 01:41:49;;;;;;;65.40;19.03;;;;;;;-0.90;100.00;151142.63;5071623;28;20478;-76
2022/01/27 01:44:27;;;;;;;43.83;17.73;;;;;;;-0.89;100.00;151143.91;5098280;28;20929;-77
2022/01/27 01:47:02;;;;;;;44.80;18.37;;;;;;;-0.98;100.00;151120.88;5070328;28;20468;-77
2022/01/27 01:49:38;;;;;;;33.70;16.10;;;;;;;-1.00;100.00;151117.00;5055770;28;20485;-77
2022/01/27 01:52:14;;;;;;;41.70;16.70;;;;;;;-1.05;100.00;151104.19;5084719;28;20450;-77
2022/01/27 01:54:49;;;;;;;45.27;19.13;;;;;;;-1.03;100.00;151109.28;5037571;28;20441;-77
2022/01/27 01:57:25;;;;;;;46.13;18.53;;;;;;;-1.05;100.00;151104.19;5056338;28;20485;-77
2022/01/27 02:00:04;;;;;;;32.93;16.13;;;;;;;-0.99;100.00;151119.56;5067122;28;20545;-77
2022/01/27 02:02:47;;;;;;;32.23;17.60;;;;;;;-1.01;100.00;151114.47;5071548;28;20454;-77
2022/01/27 02:05:27;;;;;;;34.10;15.50;;;;;;;-0.94;100.00;151132.38;5054452;28;20449;-77
2022/01/27 02:19:46;;;;;;;44.63;17.70;;;;;;;-1.01;100.00;151113.16;5069732;28;20441;-77
2022/01/27 02:22:23;;;;;;;41.97;17.20;;;;;;;-1.03;100.00;151109.28;5071243;28;20444;-77
2022/01/27 02:24:59;;;;;;;30.50;17.53;;;;;;;-1.01;100.00;151113.16;5073409;28;20471;-77
2022/01/27 02:27:34;;;;;;;46.13;19.37;;;;;;;-0.90;100.00;151142.63;5070868;28;20474;-77
2022/01/27 02:30:11;;;;;;;34.00;17.43;;;;;;;-0.93;100.00;151133.69;5056551;28;20429;-77
2022/01/27 02:32:46;;;;;;;34.20;17.30;;;;;;;-0.95;100.00;151128.50;5071125;28;20884;-77
2022/01/27 02:35:24;;;;;;;59.83;20.50;;;;;;;-1.00;100.00;151117.00;5054608;28;20450;-77
2022/01/27 02:38:01;;;;;;;37.07;16.70;;;;;;;-1.00;100.00;151117.00;5055480;28;20453;-77
2022/01/27 02:40:40;;;;;;;31.37;17.27;;;;;;;-0.91;100.00;151138.78;5050844;28;20970;-77
2022/01/27 02:43:16;;;;;;;43.63;19.43;;;;;;;-0.89;100.00;151143.91;5059124;28;20450;-76
2022/01/27 02:46:00;;;;;;;38.30;18.40;;;;;;;-0.89;100.00;151145.22;5056922;28;20818;-77
2022/01/27 02:48:37;;;;;;;38.50;17.77;;;;;;;-0.90;100.00;151141.38;5067626;28;20442;-77
2022/01/27 02:51:12;;;;;;;38.97;17.30;;;;;;;-0.92;100.00;151136.22;5070940;28;20449;-77
2022/01/27 02:53:49;;;;;;;35.87;17.80;;;;;;;-0.91;100.00;151140.09;5055761;28;20460;-77
2022/01/27 02:56:25;;;;;;;30.87;16.90;;;;;;;-0.97;100.00;151124.69;5055666;28;20440;-77
2022/01/27 02:59:00;;;;;;;32.33;17.13;;;;;;;-0.95;100.00;151128.50;5056196;28;20450;-77
2022/01/27 03:01:36;;;;;;;35.30;17.67;;;;;;;-0.96;100.00;151127.28;5058785;28;20434;-77
2022/01/27 03:04:12;;;;;;;32.03;16.90;;;;;;;-0.91;100.00;151138.78;5070345;28;20450;-77
2022/01/27 03:06:48;;;;;;;33.27;16.43;;;;;;;-0.87;100.00;151149.03;5053935;28;20472;-77
2022/01/27 03:09:25;;;;;;;43.47;19.70;;;;;;;-0.82;100.00;151163.16;5069151;28;20452;-77
2022/01/27 03:12:02;;;;;;;34.37;17.47;;;;;;;-0.85;100.00;151154.19;5070348;28;20458;-77
2022/01/27 03:14:38;;;;;;;37.47;18.17;;;;;;;-0.86;100.00;151151.63;5056139;28;20715;-77
2022/01/27 03:17:13;;;;;;;38.23;19.93;;;;;;;-0.95;100.00;151129.81;5053543;28;20438;-76
2022/01/27 03:19:51;;;;;;;35.67;17.33;;;;;;;-0.97;100.00;151123.41;5071605;28;20477;-77
2022/01/27 03:22:27;;;;;;;31.20;16.50;;;;;;;-0.96;100.00;151125.97;5069992;28;20446;-76
2022/01/27 03:25:04;;;;;;;31.17;16.50;;;;;;;-0.98;100.00;151120.88;5070617;28;20443;-76
2022/01/27 03:27:45;;;;;;;37.70;16.13;;;;;;;-0.99;100.00;151119.56;5083963;28;20461;-77
2022/01/27 03:30:21;;;;;;;29.93;16.03;;;;;;;-0.96;100.00;151127.28;5068892;28;20450;-77
2022/01/27 03:32:56;;;;;;;32.30;16.30;;;;;;;-0.95;100.00;151128.50;5056053;28;20438;-77
2022/01/27 03:35:32;;;;;;;31.40;17.90;;;;;;;-0.91;100.00;151138.78;5055941;28;20789;-76
2022/01/27 03:38:07;;;;;;;37.23;17.67;;;;;;;-0.95;100.00;151128.50;5070478;28;20517;-77
2022/01/27 03:40:44;;;;;;;32.23;16.97;;;;;;;-0.96;100.00;151127.28;5056621;28;20450;-77
2022/01/27 03:43:20;;;;;;;28.17;17.10;;;;;;;-0.97;100.00;151123.41;5051068;28;20461;-76
2022/01/27 03:45:56;;;;;;;28.83;15.07;;;;;;;-0.97;100.00;151123.41;5064979;28;20450;-77
2022/01/27 03:48:31;;;;;;;28.93;15.30;;;;;;;-0.95;100.00;151128.50;5068782;28;20472;-77
2022/01/27 03:51:07;;;;;;;24.50;15.80;;;;;;;-0.91;100.00;151138.78;5065061;28;20445;-77
2022/01/27 03:53:42;;;;;;;30.27;15.73;;;;;;;-0.98;100.00;151122.09;5080400;28;20490;-77
2022/01/27 03:56:19;;;;;;;23.93;14.10;;;;;;;-0.98;100.00;151122.09;5082064;28;20438;-77
2022/01/27 03:58:55;;;;;;;32.80;16.93;;;;;;;-0.95;100.00;151129.81;5068628;28;20449;-77
2022/01/27 04:01:31;;;;;;;25.70;16.47;;;;;;;-0.94;100.00;151131.09;5054567;28;20461;-77
2022/01/27 04:04:06;;;;;;;27.37;16.70;;;;;;;-0.96;100.00;151125.97;5055336;28;20434;-76
2022/01/27 04:06:42;;;;;;;26.03;15.43;;;;;;;-0.92;100.00;151136.22;5069058;28;20468;-77
2022/01/27 04:12:13;;;;;;;28.37;15.70;;;;;;;-0.94;100.00;151132.38;5050780;28;20442;-77
2022/01/27 04:14:48;;;;;;;26.90;15.33;;;;;;;-0.78;100.00;151172.13;5054153;28;20465;-77
2022/01/27 04:17:24;;;;;;;25.87;14.93;;;;;;;-0.84;100.00;151156.72;5082145;28;20438;-77
2022/01/27 04:19:59;;;;;;;28.77;16.17;;;;;;;-0.92;100.00;151137.50;5068678;28;20454;-76
2022/01/27 04:22:35;;;;;;;28.00;14.43;;;;;;;-0.97;100.00;151123.41;5064528;28;20430;-77
2022/01/27 04:25:12;;;;;;;21.87;14.30;;;;;;;-0.98;100.00;151120.88;5069861;28;20937;-77
2022/01/27 04:27:53;;;;;;;25.97;15.27;;;;;;;-1.04;100.00;151106.75;5067687;28;20485;-77
2022/01/27 04:30:29;;;;;;;28.37;14.83;;;;;;;-1.06;100.00;151101.59;5059332;28;20508;-77
2022/01/27 04:33:06;;;;;;;29.57;16.67;;;;;;;-1.04;100.00;151106.75;5067907;28;20433;-77
2022/01/27 04:35:47;;;;;;;29.67;15.90;;;;;;;-1.04;100.00;151105.47;5052224;28;20442;-77
2022/01/27 04:38:27;;;;;;;24.93;15.20;;;;;;;-1.02;100.00;151110.59;5053887;28;20470;-77
2022/01/27 04:41:10;;;;;;;32.93;18.10;;;;;;;-0.95;100.00;151128.50;5051077;28;20438;-77
2022/01/27 04:43:54;;;;;;;29.87;17.67;;;;;;;-0.92;100.00;151136.22;5066499;28;20785;-76
2022/01/27 04:46:35;;;;;;;30.47;19.23;;;;;;;-0.93;100.00;151133.69;5067802;28;20857;-77
2022/01/27 04:49:12;;;;;;;26.43;17.00;;;;;;;-0.94;100.00;151131.09;5060413;28;20435;-77
2022/01/27 04:51:47;;;;;;;30.50;18.70;;;;;;;-0.94;100.00;151131.09;5068188;28;20452;-76
2022/01/27 04:54:27;;;;;;;28.43;18.40;;;;;;;-0.92;100.00;151136.22;5071153;28;20485;-77
2022/01/27 04:57:05;;;;;;;27.27;16.87;;;;;;;-0.86;100.00;151152.91;5073479;28;20435;-77
2022/01/27 04:59:44;;;;;;;34.50;19.03;;;;;;;-0.77;100.00;151174.72;5058639;28;20449;-77
2022/01/27 05:02:27;;;;;;;32.27;18.30;;;;;;;-0.78;100.00;151172.13;5053280;28;20540;-77
2022/01/27 05:05:03;;;;;;;33.07;17.70;;;;;;;-0.74;100.00;151182.38;5073319;28;20434;-77
2022/01/27 05:07:39;;;;;;;34.97;19.30;;;;;;;-0.72;100.00;151187.53;5039005;28;20496;-77
2022/01/27 05:10:21;;;;;;;26.67;16.60;;;;;;;-0.75;100.00;151179.84;5072809;28;20951;-76
2022/01/27 05:13:04;;;;;;;34.13;19.27;;;;;;;-0.72;100.00;151188.81;5051008;28;20480;-77
2022/01/27 05:15:45;;;;;;;29.40;18.30;;;;;;;-0.73;100.00;151184.94;5055596;28;20451;-77
2022/01/27 05:18:21;;;;;;;29.30;18.50;;;;;;;-0.67;100.00;151200.34;5037596;28;20441;-77
2022/01/27 05:20:56;;;;;;;31.53;19.03;;;;;;;-0.75;100.00;151181.13;5100533;28;20500;-76
2022/01/27 05:23:32;;;;;;;32.03;18.03;;;;;;;-0.76;100.00;151177.25;5056362;28;20440;-76
2022/01/27 05:26:07;;;;;;;34.83;18.77;;;;;;;-0.74;100.00;151182.38;5057829;28;20444;-77
2022/01/27 05:28:43;;;;;;;29.57;17.87;;;;;;;-0.72;100.00;151187.53;5056673;28;20962;-77
2022/01/27 05:31:20;;;;;;;30.20;17.37;;;;;;;-0.70;100.00;151192.66;5055096;28;20876;-77
2022/01/27 05:33:56;;;;;;;31.37;18.47;;;;;;;-0.71;100.00;151191.34;5072065;28;20448;-76
2022/01/27 05:36:31;;;;;;;34.37;19.00;;;;;;;-0.75;100.00;151179.84;5073975;28;20765;-77
2022/01/27 05:39:07;;;;;;;34.70;19.17;;;;;;;-0.71;100.00;151190.06;5054107;28;20809;-76
2022/01/27 05:41:45;;;;;;;31.17;18.20;;;;;;;-0.74;100.00;151183.66;5051015;28;20434;-77
2022/01/27 05:44:21;;;;;;;26.17;17.17;;;;;;;-0.74;100.00;151182.38;5103766;28;20443;-77
2022/01/27 05:46:58;;;;;;;27.70;17.97;;;;;;;-0.72;100.00;151187.53;5056523;28;20439;-76
2022/01/27 05:49:34;;;;;;;32.50;19.40;;;;;;;-0.74;100.00;151182.38;5072723;28;20543;-77
2022/01/27 05:52:10;;;;;;;27.97;16.70;;;;;;;-0.68;100.00;151197.78;5056500;28;20455;-77
2022/01/27 05:54:45;;;;;;;32.47;16.70;;;;;;;-0.70;100.00;151193.94;5037138;28;20436;-77
2022/01/27 05:57:24;;;;;;;34.03;18.30;;;;;;;-0.75;100.00;151181.13;5070745;28;20807;-77
2022/01/27 05:59:59;;;;;;;31.53;19.07;;;;;;;-0.79;100.00;151169.56;5054603;28;20848;-77
2022/01/27 06:02:36;;;;;;;32.03;16.83;;;;;;;-0.79;100.00;151169.56;5069075;28;20443;-77
2022/01/27 06:05:12;;;;;;;34.20;19.47;;;;;;;-0.80;100.00;151167.00;5056778;28;20442;-77
2022/01/27 06:07:47;;;;;;;26.67;16.43;;;;;;;-0.82;100.00;151161.91;5055780;28;20476;-76
2022/01/27 06:10:23;;;;;;;28.83;17.20;;;;;;;-0.77;100.00;151174.72;5061440;28;20429;-76
2022/01/27 06:12:59;;;;;;;28.77;18.00;;;;;;;-0.78;100.00;151172.13;5061269;28;20987;-76
2022/01/27 06:15:34;;;;;;;29.73;18.30;;;;;;;-0.85;100.00;151154.19;5069650;28;20440;-77
2022/01/27 06:18:11;;;;;;;29.40;17.77;;;;;;;-0.81;100.00;151164.44;5069591;28;20875;-77
2022/01/27 06:20:47;;;;;;;34.67;18.50;;;;;;;-0.78;100.00;151172.13;5070235;28;20528;-77
2022/01/27 06:23:22;;;;;;;30.60;17.47;;;;;;;-0.75;100.00;151179.84;5058571;28;20457;-77
2022/01/27 06:25:58;;;;;;;30.57;18.10;;;;;;;-0.75;100.00;151179.84;5072109;28;20440;-77
2022/01/27 06:28:33;;;;;;;27.53;16.97;;;;;;;-0.77;100.00;151174.72;5070507;28;20474;-77
2022/01/27 06:31:09;;;;;;;30.73;17.60;;;;;;;-0.75;100.00;151181.13;5068848;28;20449;-76
2022/01/27 06:33:46;;;;;;;27.37;17.17;;;;;;;-0.76;100.00;151177.25;5054679;28;20455;-77
2022/01/27 06:36:22;;;;;;;31.27;17.73;;;;;;;-0.75;100.00;151181.13;5070812;28;20453;-77
2022/01/27 06:38:58;;;;;;;31.10;18.57;;;;;;;-0.74;100.00;151182.38;5069946;28;20528;-77
2022/01/27 06:41:33;;;;;;;32.23;18.53;;;;;;;-0.79;100.00;151170.84;5063772;28;20443;-77
2022/01/27 06:44:09;;;;;;;29.17;17.83;;;;;;;-0.79;100.00;151169.56;5071918;28;20516;-77
2022/01/27 06:46:45;;;;;;;28.30;15.87;;;;;;;-0.84;100.00;151158.03;5055770;28;20438;-77
2022/01/27 06:49:22;;;;;;;26.83;17.60;;;;;;;-0.78;100.00;151173.44;5055388;28;20472;-77
2022/01/27 06:51:57;;;;;;;26.90;15.87;;;;;;;-0.76;100.00;151178.53;5069248;28;20450;-77
2022/01/27 06:54:33;;;;;;;37.50;18.10;;;;;;;-0.76;100.00;151178.53;5067654;28;20455;-77
2022/01/27 06:57:09;;;;;;;28.37;17.30;;;;;;;-0.77;100.00;151175.97;5096534;28;20505;-77
2022/01/27 06:59:44;;;;;;;28.17;15.57;;;;;;;-0.73;100.00;151184.94;5065008;28;20488;-77
2022/01/27 07:02:20;;;;;;;25.90;15.93;;;;;;;-0.71;100.00;151190.06;5071234;28;20455;-77
2022/01/27 07:04:57;;;;;;;28.33;17.17;;;;;;;-0.70;100.00;151192.66;5070831;28;20471;-77
2022/01/27 07:07:32;;;;;;;27.47;17.40;;;;;;;-0.72;100.00;151187.53;5070583;28;20445;-77
2022/01/27 07:10:08;;;;;;;27.77;16.80;;;;;;;-0.78;100.00;151173.44;5068885;28;20956;-77
2022/01/27 07:12:44;;;;;;;27.30;16.40;;;;;;;-0.85;100.00;151155.44;5068261;28;20441;-77
2022/01/27 07:15:20;;;;;;;25.67;15.90;;;;;;;-0.84;100.00;151156.72;5067415;28;20446;-77
2022/01/27 07:17:55;;;;;;;29.00;15.77;;;;;;;-0.79;100.00;151169.56;5069122;28;20448;-76
2022/01/27 07:20:32;;;;;;;25.27;17.07;;;;;;;-0.82;100.00;151161.91;5051065;28;20521;-76
2022/01/27 07:23:08;;;;;;;24.80;15.20;;;;;;;-0.86;100.00;151151.63;5054617;28;20494;-76
2022/01/27 07:25:44;;;;;;;28.37;15.37;;;;;;;-0.89;100.00;151143.91;5070017;28;20434;-76
2022/01/27 07:28:19;;;;;;;25.97;16.60;;;;;;;-0.89;100.00;151143.91;5064855;28;20480;-75
2022/01/27 07:30:55;;;;;;;22.73;13.67;;;;;;;-0.91;100.00;151140.09;5055858;28;20495;-77
2022/01/27 07:33:31;;;;;;;23.33;14.30;;;;;;;-0.94;100.00;151132.38;5055675;28;20540;-77
2022/01/27 07:36:07;;;;;;;21.30;13.13;;;;;;;-0.97;100.00;151123.41;5054225;28;20507;-77
2022/01/27 07:38:43;;;;;;;27.20;14.33;;;;;;;-0.93;100.00;151133.69;5055186;28;20775;-77
2022/01/27 07:41:19;;;;;;;21.93;14.10;;;;;;;-0.98;100.00;151122.09;5070625;28;20438;-77
2022/01/27 07:43:55;;;;;;;22.57;13.53;;;;;;;-0.99;100.00;151118.28;5070163;28;20447;-77
2022/01/27 07:46:30;;;;;;;22.43;13.97;;;;;;;-0.98;100.00;151120.88;5069157;28;20454;-77
2022/01/27 07:49:06;;;;;;;23.50;13.00;;;;;;;-0.95;100.00;151129.81;5070791;28;20469;-77
2022/01/27 07:51:43;;;;;;;25.73;13.40;;;;;;;-0.99;100.00;151119.56;5051320;28;20439;-77
2022/01/27 07:54:19;;;;;;;23.53;13.40;;;;;;;-1.06;100.00;151101.59;5050632;28;20460;-77
2022/01/27 07:56:54;;;;;;;22.83;14.53;;;;;;;-1.00;100.00;151115.69;5055217;28;20536;-77
2022/01/27 07:59:30;;;;;;;20.23;13.43;;;;;;;-0.94;100.00;151131.09;5070418;28;20549;-77
2022/01/27 08:02:06;;;;;;;23.13;12.90;;;;;;;-0.98;100.00;151122.09;5070434;28;20465;-77
2022/01/27 08:04:42;;;;;;;22.30;12.90;;;;;;;-0.99;100.00;151119.56;5070151;28;20449;-77
2022/01/27 08:07:18;;;;;;;29.03;15.40;;;;;;;-1.03;100.00;151108.06;5071178;28;20430;-77
2022/01/27 08:09:54;;;;;;;21.70;14.57;;;;;;;-0.92;100.00;151136.22;5058048;28;20466;-77
2022/01/27 08:12:29;;;;;;;27.70;15.40;;;;;;;-0.94;100.00;151132.38;5052619;28;20472;-77
2022/01/27 08:15:06;;;;;;;22.87;14.00;;;;;;;-0.95;100.00;151129.81;5050350;28;20437;-77
2022/01/27 08:17:41;;;;;;;27.67;14.60;;;;;;;-0.90;100.00;151141.38;5051476;28;20454;-77
2022/01/27 08:20:17;;;;;;;24.30;14.90;;;;;;;-0.96;100.00;151125.97;5035508;28;20426;-77
2022/01/27 08:22:55;;;;;;;27.10;15.47;;;;;;;-0.89;100.00;151143.91;5082208;28;20788;-77
2022/01/27 08:25:30;;;;;;;28.17;15.60;;;;;;;-0.95;100.00;151128.50;5068945;28;20450;-77
2022/01/27 08:28:15;;;;;;;24.37;15.70;;;;;;;-0.96;100.00;151125.97;5071454;28;20564;-77
2022/01/27 08:30:53;;;;;;;23.10;14.80;;;;;;;-0.97;100.00;151124.69;5057656;28;20803;-77
2022/01/27 08:33:29;;;;;;;28.10;15.77;;;;;;;-0.93;100.00;151133.69;5057563;28;20451;-77
2022/01/27 08:36:05;;;;;;;22.93;15.50;;;;;;;-0.90;100.00;151142.63;5106893;28;20491;-77
2022/01/27 08:38:43;;;;;;;25.67;15.93;;;;;;;-0.88;100.00;151146.50;5057945;28;20944;-77
2022/01/27 08:41:18;;;;;;;29.00;16.17;;;;;;;-0.89;100.00;151143.91;5073229;28;20441;-77
2022/01/27 08:43:55;;;;;;;25.77;14.20;;;;;;;-0.87;100.00;151150.31;5073203;28;20475;-77
2022/01/27 08:46:30;;;;;;;24.73;13.50;;;;;;;-0.79;100.00;151169.56;5058356;28;20515;-77
2022/01/27 08:49:06;;;;;;;22.70;13.17;;;;;;;-0.81;100.00;151164.44;5089036;28;20465;-77
2022/01/27 08:51:42;;;;;;;18.40;12.70;;;;;;;-0.83;100.00;151159.31;5071278;28;20433;-77
2022/01/27 08:54:19;;;;;;;21.73;13.27;;;;;;;-0.78;100.00;151172.13;5071135;28;20443;-77
2022/01/27 08:56:55;;;;;;;20.73;13.40;;;;;;;-0.77;100.00;151174.72;5066188;28;20437;-77
2022/01/27 08:59:30;;;;;;;23.73;14.20;;;;;;;-0.78;100.00;151173.44;5073719;28;20457;-78
2022/01/27 09:02:06;;;;;;;30.20;15.57;;;;;;;-0.72;100.00;151188.81;5073451;28;20972;-77
2022/01/27 09:04:42;;;;;;;26.93;15.20;;;;;;;-0.73;100.00;151184.94;5074126;28;20482;-77
2022/01/27 09:07:17;;;;;;;22.53;14.57;;;;;;;-0.69;100.00;151195.25;5072244;28;20453;-77
2022/01/27 09:09:54;;;;;;;21.97;13.90;;;;;;;-0.72;100.00;151188.81;5073489;28;20494;-77
2022/01/27 09:12:30;;;;;;;24.63;14.13;;;;;;;-0.74;100.00;151183.66;5073654;28;20465;-77
2022/01/27 09:15:06;;;;;;;26.60;14.57;;;;;;;-0.74;100.00;151182.38;5072641;28;21034;-77
2022/01/27 09:17:42;;;;;;;24.70;15.33;;;;;;;-0.70;100.00;151193.94;5055714;28;20451;-77
2022/01/27 09:20:18;;;;;;;27.80;15.73;;;;;;;-0.73;100.00;151186.25;5057773;28;20436;-77
2022/01/27 09:22:56;;;;;;;25.17;14.30;;;;;;;-0.68;100.00;151199.06;5071472;28;20446;-77
2022/01/27 09:25:42;;;;;;;23.17;13.27;;;;;;;-0.61;100.00;151217.00;5065364;28;20891;-77
2022/01/27 09:28:17;;;;;;;23.83;14.03;;;;;;;-0.47;100.00;151251.63;5054259;28;20990;-77
2022/01/27 09:30:53;;;;;;;22.50;13.80;;;;;;;-0.39;100.00;151272.16;5059601;28;20790;-78
2022/01/27 09:33:28;;;;;;;23.87;14.23;;;;;;;-0.40;100.00;151269.63;5072591;28;20941;-77
2022/01/27 09:36:11;;;;;;;21.80;13.33;;;;;;;-0.38;100.00;151274.75;5071875;28;20455;-78
2022/01/27 09:38:46;;;;;;;23.10;13.33;;;;;;;-0.39;100.00;151270.88;5072033;28;20443;-77
2022/01/27 09:41:23;;;;;;;21.27;12.70;;;;;;;-0.32;100.00;151288.84;5056699;28;20449;-77
2022/01/27 09:44:01;;;;;;;22.47;12.70;;;;;;;-0.24;100.00;151309.38;5056696;28;20456;-78
2022/01/27 09:46:36;;;;;;;20.27;12.07;;;;;;;-0.18;100.00;151326.03;5073655;28;20530;-77
2022/01/27 09:49:15;;;;;;;22.87;13.33;;;;;;;-0.13;100.00;151337.56;5073958;28;20854;-77
2022/01/27 09:51:51;;;;;;;19.90;12.60;;;;;;;-0.09;100.00;151347.88;5053326;28;20533;-77
2022/01/27 09:54:27;;;;;;;22.00;11.00;;;;;;;-0.04;100.00;151360.69;5071218;28;20439;-77
2022/01/27 09:57:04;;;;;;;17.40;12.23;;;;;;;-0.03;100.00;151363.28;5071636;28;20519;-77
2022/01/27 09:59:40;;;;;;;21.03;12.67;;;;;;;-0.04;100.00;151361.97;5072680;28;20544;-77
2022/01/27 10:02:17;;;;;;;21.30;11.20;;;;;;;0.05;100.00;151383.81;5099295;28;20483;-77
2022/01/27 10:04:54;;;;;;;17.03;10.07;;;;;;;0.12;100.00;151401.75;5056845;28;20439;-77
2022/01/27 10:07:36;;;;;;;19.33;10.67;;;;;;;0.14;100.00;151405.59;5064984;28;20445;-77
2022/01/27 10:10:16;;;;;;;13.53;9.47;;;;;;;0.21;100.00;151423.59;5056610;28;20559;-77
2022/01/27 10:12:55;;;;;;;15.30;10.13;;;;;;;0.24;100.00;151431.28;5102579;28;20477;-78
2022/01/27 10:15:37;;;;;;;15.10;9.47;;;;;;;0.27;100.00;151438.97;5087649;28;20441;-77
2022/01/27 10:18:14;;;;;;;17.40;10.50;;;;;;;0.29;100.00;151445.38;5072049;28;21009;-78
2022/01/27 10:20:51;;;;;;;16.50;10.53;;;;;;;0.32;100.00;151451.84;5070697;28;20446;-78
2022/01/27 10:23:31;;;;;;;20.30;11.90;;;;;;;0.37;100.00;151464.66;5071530;28;20549;-78
2022/01/27 10:26:15;;;;;;;16.20;11.53;;;;;;;0.37;100.00;151464.66;5072266;28;20434;-78
2022/01/27 10:29:00;;;;;;;18.17;10.53;;;;;;;0.35;100.00;151459.50;5055021;28;20552;-78
2022/01/27 10:31:39;;;;;;;20.93;11.93;;;;;;;0.34;100.00;151458.25;5057315;28;20450;-77
2022/01/27 10:34:15;;;;;;;17.30;11.23;;;;;;;0.39;100.00;151469.78;5072770;28;20788;-78
2022/01/27 10:36:56;;;;;;;14.40;10.33;;;;;;;0.34;100.00;151458.25;5071919;28;20785;-78
2022/01/27 10:39:31;;;;;;;17.10;10.97;;;;;;;0.34;100.00;151458.25;5070267;28;20475;-78
2022/01/27 10:42:09;;;;;;;19.40;11.93;;;;;;;0.40;100.00;151472.31;5073209;28;20440;-78
2022/01/27 10:44:47;;;;;;;20.27;10.13;;;;;;;0.45;100.00;151485.22;5072632;28;20437;-78
2022/01/27 10:47:29;;;;;;;16.00;10.63;;;;;;;0.51;100.00;151501.88;5041922;28;20442;-78
2022/01/27 10:50:07;;;;;;;18.40;10.43;;;;;;;0.58;100.00;151518.59;5068771;28;20477;-78
2022/01/27 10:52:52;;;;;;;17.80;11.10;;;;;;;0.59;100.00;151521.13;5070962;28;20452;-78
2022/01/27 10:55:28;;;;;;;20.90;12.33;;;;;;;0.61;100.00;151526.25;5092473;28;20445;-78
2022/01/27 10:58:26;;;;;;;18.83;12.73;;;;;;;0.62;100.00;151528.81;5102599;28;20467;-78
2022/01/27 11:01:04;;;;;;;17.17;11.40;;;;;;;0.62;100.00;151528.81;5071574;28;20450;-78
2022/01/27 11:03:50;;;;;;;18.83;11.00;;;;;;;0.64;100.00;151533.94;5054417;28;20442;-78
2022/01/27 11:06:27;;;;;;;19.63;11.10;;;;;;;0.70;100.00;151549.38;5054971;28;20548;-78
2022/01/27 11:09:08;;;;;;;19.23;11.90;;;;;;;0.68;100.00;151544.25;5071858;28;20500;-77
2022/01/27 11:11:43;;;;;;;19.70;10.97;;;;;;;0.70;100.00;151549.38;5071576;28;20438;-78
2022/01/27 11:14:20;;;;;;;15.90;10.80;;;;;;;0.72;100.00;151554.50;5053774;28;20985;-78
2022/01/27 11:16:59;;;;;;;19.27;12.37;;;;;;;0.72;100.00;151554.50;5070929;28;20446;-77
2022/01/27 11:19:58;;;;;;;18.30;11.90;;;;;;;0.75;100.00;151560.91;5071973;28;20535;-78
2022/01/27 11:22:48;;;;;;;17.43;10.80;;;;;;;0.77;100.00;151566.09;5070167;28;20441;-78
2022/01/27 11:28:20;;;;;;;15.37;10.57;;;;;;;0.81;100.00;151577.63;5081948;28;20466;-77
2022/01/27 11:31:04;;;;;;;15.57;9.53;;;;;;;0.81;100.00;151577.63;5104846;28;20560;-78
2022/01/27 11:33:44;;;;;;;20.20;10.10;;;;;;;0.84;100.00;151585.34;5070424;28;20964;-77
2022/01/27 11:36:24;;;;;;;15.23;10.00;;;;;;;0.89;100.00;151596.88;5069588;28;20441;-78
2022/01/27 11:39:01;;;;;;;17.20;10.30;;;;;;;0.86;100.00;151590.47;5070467;28;20442;-78
2022/01/27 11:41:40;;;;;;;15.50;10.47;;;;;;;0.86;100.00;151589.19;5070321;28;20458;-77
2022/01/27 11:44:23;;;;;;;14.70;9.60;;;;;;;0.90;100.00;151600.72;5054731;28;20453;-78
2022/01/27 11:47:19;;;;;;;16.30;10.23;;;;;;;0.88;100.00;151595.59;5071494;28;20961;-78
2022/01/27 11:50:04;;;;;;;15.40;10.00;;;;;;;0.94;100.00;151611.03;5070424;28;20473;-78
2022/01/27 11:52:48;;;;;;;12.07;9.50;;;;;;;0.94;100.00;151609.72;5069486;28;20450;-78
2022/01/27 11:55:45;;;;;;;14.63;9.17;;;;;;;0.97;100.00;151618.72;5054886;28;20446;-78
2022/01/27 11:58:22;;;;;;;16.87;9.90;;;;;;;1.00;100.00;151625.16;5071140;28;20452;-78
2022/01/27 12:01:14;;;;;;;13.77;9.23;;;;;;;1.07;100.00;151644.41;5069769;28;20473;-78
2022/01/27 12:04:16;;;;;;;14.07;8.93;;;;;;;1.07;100.00;151644.41;5104494;28;20478;-78
2022/01/27 12:07:08;;;;;;;12.30;8.63;;;;;;;1.09;100.00;151649.53;5054635;28;20430;-78
2022/01/27 12:09:49;;;;;;;14.23;9.57;;;;;;;1.14;100.00;151662.38;5086771;28;20473;-78
2022/01/27 12:12:30;;;;;;;13.20;8.97;;;;;;;1.14;100.00;151662.38;5103039;28;20761;-78
2022/01/27 12:15:10;;;;;;;12.83;8.80;;;;;;;1.18;100.00;151672.69;5104061;28;20437;-78
2022/01/27 12:17:45;;;;;;;14.60;9.80;;;;;;;1.21;100.00;151680.41;5070235;28;20955;-79
2022/01/27 12:20:44;;;;;;;16.70;9.07;;;;;;;1.26;100.00;151690.66;5103648;28;20459;-78
2022/01/27 12:23:21;;;;;;;14.80;8.80;;;;;;;1.28;100.00;151695.78;5104333;28;20541;-79
2022/01/27 12:25:58;;;;;;;12.90;9.27;;;;;;;1.35;99.92;151713.78;5101328;28;20446;-79